createdAt,value
2022-08-20T00:02:14.742Z,99756.73
2022-08-20T00:04:42.537Z,99751.05
2022-08-20T00:07:10.178Z,99750.54
2022-08-20T00:09:37.971Z,99749.76
2022-08-20T00:12:06.537Z,99747.38
2022-08-20T00:14:35.249Z,99737.91
2022-08-20T00:17:04.807Z,99731.26
2022-08-20T00:19:32.416Z,99727.52
2022-08-20T00:22:00.097Z,99724.06
2022-08-20T00:24:28.608Z,99732.20
2022-08-20T00:26:56.257Z,99731.70
2022-08-20T00:29:23.962Z,99725.12
2022-08-20T00:31:51.601Z,99722.09
2022-08-20T00:34:19.309Z,99718.88
2022-08-20T00:36:47.017Z,99718.06
2022-08-20T00:39:14.772Z,99712.86
2022-08-20T00:41:42.482Z,99704.28
2022-08-20T00:44:16.649Z,99700.45
2022-08-20T00:46:45.499Z,99683.95
2022-08-20T00:49:22.191Z,99667.55
2022-08-20T00:52:15.672Z,99665.98
2022-08-20T00:54:43.623Z,99673.17
2022-08-20T00:58:00.543Z,99671.05
2022-08-20T01:00:37.612Z,99666.30
2022-08-20T01:03:09.743Z,99665.14
2022-08-20T01:05:40.216Z,99667.75
2022-08-20T01:08:09.227Z,99668.94
2022-08-20T01:10:41.328Z,99659.08
2022-08-20T01:13:14.397Z,99661.53
2022-08-20T01:15:44.775Z,99659.14
2022-08-20T01:18:28.128Z,99656.09
2022-08-20T01:20:59.969Z,99662.19
2022-08-20T01:23:48.422Z,99670.86
2022-08-20T01:26:29.523Z,99676.61
2022-08-20T01:29:21.013Z,99675.32
2022-08-20T01:31:48.654Z,99677.63
2022-08-20T01:34:19.205Z,99687.52
2022-08-20T01:36:50.896Z,99682.95
2022-08-20T01:39:22.939Z,99682.41
2022-08-20T01:42:09.580Z,99682.55
2022-08-20T01:44:40.809Z,99679.00
2022-08-20T01:47:19.764Z,99682.65
2022-08-20T01:49:52.491Z,99683.95
2022-08-20T01:53:02.604Z,99689.31
2022-08-20T01:55:31.578Z,99699.89
2022-08-20T01:58:00.852Z,99712.55
2022-08-20T02:00:28.854Z,99715.27
2022-08-20T02:02:57.118Z,99719.55
2022-08-20T02:05:24.997Z,99720.46
2022-08-20T02:07:58.093Z,99730.73
2022-08-20T02:10:25.847Z,99736.87
2022-08-20T02:12:53.553Z,99745.95
2022-08-20T02:15:34.736Z,99752.77
2022-08-20T02:18:12.846Z,99762.66
2022-08-20T02:20:41.845Z,99761.82
2022-08-20T02:23:12.011Z,99768.62
2022-08-20T02:25:42.025Z,99767.36
2022-08-20T02:28:13.893Z,99771.48
2022-08-20T02:30:46.351Z,99762.96
2022-08-20T02:33:17.106Z,99763.52
2022-08-20T02:35:48.602Z,99759.61
2022-08-20T02:38:16.940Z,99761.70
2022-08-20T02:40:46.497Z,99762.73
2022-08-20T02:43:14.445Z,99764.35
2022-08-20T02:45:44.158Z,99764.16
2022-08-20T02:48:21.640Z,99766.29
2022-08-20T02:50:57.662Z,99776.05
2022-08-20T02:53:27.460Z,99780.55
2022-08-20T02:55:55.869Z,99783.21
2022-08-20T02:58:23.965Z,99779.73
2022-08-20T03:00:52.139Z,99782.45
2022-08-20T03:03:22.348Z,99775.02
2022-08-20T03:05:57.093Z,99778.72
2022-08-20T03:08:26.458Z,99780.88
2022-08-20T03:10:54.854Z,99778.23
2022-08-20T03:13:23.616Z,99773.68
2022-08-20T03:15:58.869Z,99765.84
2022-08-20T03:18:32.897Z,99763.03
2022-08-20T03:21:00.642Z,99758.38
2022-08-20T03:23:29.190Z,99754.27
2022-08-20T03:25:57.834Z,99751.63
2022-08-20T03:28:26.108Z,99740.70
2022-08-20T03:30:54.527Z,99740.70
2022-08-20T03:33:23.479Z,99742.02
2022-08-20T03:35:51.188Z,99744.21
2022-08-20T03:38:25.021Z,99740.70
2022-08-20T03:41:02.863Z,99745.95
2022-08-20T03:43:31.399Z,99745.41
2022-08-20T03:45:59.962Z,99748.77
2022-08-20T03:48:28.491Z,99750.73
2022-08-20T03:50:58.421Z,99751.08
2022-08-20T03:53:26.562Z,99753.98
2022-08-20T03:55:56.448Z,99740.55
2022-08-20T03:58:30.053Z,99742.99
2022-08-20T04:01:06.762Z,99740.52
2022-08-20T04:03:35.477Z,99737.28
2022-08-20T04:06:04.385Z,99737.26
2022-08-20T04:08:32.081Z,99737.70
2022-08-20T04:11:00.248Z,99738.35
2022-08-20T04:13:29.893Z,99728.72
2022-08-20T04:16:01.768Z,99714.25
2022-08-20T04:18:29.830Z,99713.48
2022-08-20T04:20:57.452Z,99722.73
2022-08-20T04:23:25.104Z,99729.26
2022-08-20T04:25:54.287Z,99731.80
2022-08-20T04:28:27.262Z,99727.81
2022-08-20T04:30:57.627Z,99714.55
2022-08-20T04:33:34.186Z,99709.70
2022-08-20T04:36:05.922Z,99719.85
2022-08-20T04:38:48.208Z,99725.54
2022-08-20T04:41:23.039Z,99730.45
2022-08-20T04:43:54.299Z,99721.46
2022-08-20T04:46:27.601Z,99722.52
2022-08-20T04:48:56.723Z,99726.25
2022-08-20T04:51:25.521Z,99725.48
2022-08-20T04:53:57.235Z,99723.79
2022-08-20T04:56:29.192Z,99719.21
2022-08-20T04:59:00.295Z,99711.64
2022-08-20T05:01:29.064Z,99703.55
2022-08-20T05:03:59.553Z,99709.95
2022-08-20T05:06:31.566Z,99719.81
2022-08-20T05:09:00.849Z,99725.36
2022-08-20T05:11:34.846Z,99731.02
2022-08-20T05:14:08.535Z,99733.59
2022-08-20T05:16:38.933Z,99730.48
2022-08-20T05:19:09.449Z,99726.28
2022-08-20T05:21:38.223Z,99719.81
2022-08-20T05:24:07.113Z,99717.11
2022-08-20T05:26:34.956Z,99716.77
2022-08-20T05:29:05.525Z,99717.19
2022-08-20T05:31:34.629Z,99715.16
2022-08-20T05:34:10.360Z,99713.05
2022-08-20T05:36:42.062Z,99711.73
2022-08-20T05:39:10.409Z,99703.34
2022-08-20T05:41:39.512Z,99701.31
2022-08-20T05:44:13.950Z,99706.60
2022-08-20T05:46:44.823Z,99711.54
2022-08-20T05:49:16.310Z,99716.91
2022-08-20T05:51:44.007Z,99712.39
2022-08-20T05:54:13.192Z,99710.21
2022-08-20T05:56:41.328Z,99712.69
2022-08-20T05:59:12.290Z,99715.40
2022-08-20T06:01:42.001Z,99715.89
2022-08-20T06:04:27.233Z,99715.73
2022-08-20T06:07:04.171Z,99713.73
2022-08-20T06:09:33.325Z,99716.90
2022-08-20T06:12:03.909Z,99721.54
2022-08-20T06:14:32.436Z,99723.87
2022-08-20T06:17:08.886Z,99726.45
2022-08-20T06:19:38.611Z,99728.20
2022-08-20T06:22:17.787Z,99733.82
2022-08-20T06:24:49.025Z,99738.62
2022-08-20T06:27:17.144Z,99738.91
2022-08-20T06:29:45.175Z,99741.04
2022-08-20T06:32:13.198Z,99750.30
2022-08-20T06:34:50.280Z,99747.98
2022-08-20T06:37:23.213Z,99748.54
2022-08-20T06:39:55.447Z,99746.58
2022-08-20T06:42:23.256Z,99747.95
2022-08-20T06:44:51.098Z,99744.38
2022-08-20T06:47:20.785Z,99745.44
2022-08-20T06:49:48.850Z,99739.30
2022-08-20T06:52:18.027Z,99738.21
2022-08-20T06:54:46.467Z,99735.01
2022-08-20T06:57:14.731Z,99740.48
2022-08-20T06:59:42.598Z,99734.26
2022-08-20T07:02:10.297Z,99735.38
2022-08-20T07:04:38.003Z,99737.06
2022-08-20T07:07:05.688Z,99740.41
2022-08-20T07:09:33.277Z,99736.33
2022-08-20T07:12:04.093Z,99743.02
2022-08-20T07:14:31.680Z,99741.45
2022-08-20T07:17:03.358Z,99749.69
2022-08-20T07:19:31.406Z,99748.03
2022-08-20T07:21:59.146Z,99747.28
2022-08-20T07:24:27.122Z,99743.98
2022-08-20T07:27:01.152Z,99749.07
2022-08-20T07:29:48.709Z,99743.80
2022-08-20T07:32:32.508Z,99751.27
2022-08-20T07:35:10.127Z,99754.64
2022-08-20T07:37:43.537Z,99759.48
2022-08-20T07:40:14.288Z,99760.90
2022-08-20T07:42:42.434Z,99760.48
2022-08-20T07:45:12.810Z,99760.16
2022-08-20T07:47:42.438Z,99764.44
2022-08-20T07:50:13.621Z,99768.16
2022-08-20T07:52:41.267Z,99772.39
2022-08-20T07:55:11.938Z,99772.15
2022-08-20T07:57:39.653Z,99771.98
2022-08-20T08:00:10.370Z,99774.22
2022-08-20T08:02:39.785Z,99777.98
2022-08-20T08:05:07.869Z,99774.60
2022-08-20T08:07:36.624Z,99770.10
2022-08-20T08:10:08.630Z,99765.54
2022-08-20T08:12:40.169Z,99762.94
2022-08-20T08:15:12.765Z,99759.48
2022-08-20T08:17:40.903Z,99753.27
2022-08-20T08:20:09.606Z,99760.17
2022-08-20T08:22:37.252Z,99760.05
2022-08-20T08:25:05.668Z,99760.91
2022-08-20T08:27:34.031Z,99764.38
2022-08-20T08:30:03.221Z,99762.29
2022-08-20T08:32:32.214Z,99766.13
2022-08-20T08:35:04.759Z,99763.84
2022-08-20T08:37:32.424Z,99761.16
2022-08-20T08:40:01.285Z,99762.92
2022-08-20T08:42:31.768Z,99761.73
2022-08-20T08:45:00.465Z,99755.20
2022-08-20T08:47:37.791Z,99761.04
2022-08-20T08:50:10.054Z,99766.52
2022-08-20T08:52:42.324Z,99763.73
2022-08-20T08:55:17.738Z,99767.17
2022-08-20T08:57:47.554Z,99768.52
2022-08-20T09:00:21.395Z,99762.55
2022-08-20T09:03:15.552Z,99761.16
2022-08-20T09:05:50.473Z,99757.68
2022-08-20T09:08:24.388Z,99751.55
2022-08-20T09:10:52.187Z,99753.64
2022-08-20T09:13:19.869Z,99752.17
2022-08-20T09:15:47.446Z,99753.41
2022-08-20T09:18:15.031Z,99761.77
2022-08-20T09:20:42.761Z,99764.85
2022-08-20T09:23:10.418Z,99768.86
2022-08-20T09:25:38.048Z,99776.98
2022-08-20T09:28:05.630Z,99777.02
2022-08-20T09:30:33.239Z,99780.37
2022-08-20T09:33:01.420Z,99779.80
2022-08-20T09:35:29.174Z,99779.98
2022-08-20T09:37:57.142Z,99780.32
2022-08-20T09:40:25.098Z,99776.27
2022-08-20T09:42:53.414Z,99777.52
2022-08-20T09:45:21.994Z,99777.00
2022-08-20T09:47:56.093Z,99773.57
2022-08-20T09:50:32.361Z,99771.70
2022-08-20T09:53:01.886Z,99774.36
2022-08-20T09:55:38.879Z,99774.08
2022-08-20T09:58:22.173Z,99777.67
2022-08-20T10:00:50.590Z,99782.27
2022-08-20T10:03:18.833Z,99787.61
2022-08-20T10:05:46.644Z,99784.36
2022-08-20T10:08:14.698Z,99783.62
2022-08-20T10:10:42.282Z,99780.88
2022-08-20T10:13:10.144Z,99779.16
2022-08-20T10:15:41.870Z,99775.88
2022-08-20T10:18:12.161Z,99773.77
2022-08-20T10:20:40.384Z,99767.02
2022-08-20T10:23:08.452Z,99765.70
2022-08-20T10:25:36.078Z,99761.29
2022-08-20T10:28:04.374Z,99761.33
2022-08-20T10:30:31.991Z,99758.09
2022-08-20T10:32:59.720Z,99755.16
2022-08-20T10:35:27.878Z,99755.16
2022-08-20T10:37:56.057Z,99753.34
2022-08-20T10:40:24.270Z,99756.83
2022-08-20T10:42:52.068Z,99755.66
2022-08-20T10:45:20.128Z,99755.88
2022-08-20T10:47:47.750Z,99754.90
2022-08-20T10:50:16.699Z,99755.00
2022-08-20T10:52:44.602Z,99752.79
2022-08-20T10:55:12.477Z,99752.20
2022-08-20T10:57:42.178Z,99755.34
2022-08-20T11:00:16.792Z,99755.68
2022-08-20T11:02:44.719Z,99757.27
2022-08-20T11:05:12.535Z,99750.11
2022-08-20T11:07:54.832Z,99747.70
2022-08-20T11:10:26.752Z,99747.63
2022-08-20T11:12:55.183Z,99746.89
2022-08-20T11:15:23.484Z,99747.55
2022-08-20T11:17:51.216Z,99743.13
2022-08-20T11:20:21.063Z,99745.17
2022-08-20T11:22:48.678Z,99743.91
2022-08-20T11:25:16.764Z,99746.58
2022-08-20T11:27:47.318Z,99746.38
2022-08-20T11:30:24.590Z,99742.26
2022-08-20T11:32:52.846Z,99748.60
2022-08-20T11:35:43.242Z,99746.66
2022-08-20T11:38:11.671Z,99746.70
2022-08-20T11:40:39.625Z,99749.08
2022-08-20T11:43:15.990Z,99746.25
2022-08-20T11:45:47.558Z,99749.70
2022-08-20T11:48:15.246Z,99755.13
2022-08-20T11:50:42.931Z,99750.76
2022-08-20T11:53:10.831Z,99749.27
2022-08-20T11:55:39.643Z,99742.73
2022-08-20T11:58:08.005Z,99742.25
2022-08-20T12:00:37.016Z,99736.64
2022-08-20T12:03:09.116Z,99734.58
2022-08-20T12:05:43.809Z,99734.41
2022-08-20T12:08:27.524Z,99734.95
2022-08-20T12:10:57.690Z,99736.95
2022-08-20T12:13:30.781Z,99734.84
2022-08-20T12:16:16.352Z,99733.52
2022-08-20T12:18:45.067Z,99731.91
2022-08-20T12:21:13.314Z,99728.77
2022-08-20T12:23:41.140Z,99735.50
2022-08-20T12:26:09.025Z,99739.45
2022-08-20T12:28:36.734Z,99742.09
2022-08-20T12:31:04.891Z,99742.09
2022-08-20T12:33:33.009Z,99742.47
2022-08-20T12:36:00.914Z,99737.54
2022-08-20T12:38:28.820Z,99740.63
2022-08-20T12:40:56.562Z,99738.39
2022-08-20T12:43:25.202Z,99739.11
2022-08-20T12:45:53.243Z,99740.73
2022-08-20T12:48:21.096Z,99743.16
2022-08-20T12:50:50.240Z,99741.89
2022-08-20T12:53:18.650Z,99743.35
2022-08-20T12:55:46.631Z,99740.66
2022-08-20T12:58:14.335Z,99742.46
2022-08-20T13:00:44.321Z,99733.27
2022-08-20T13:03:15.458Z,99733.99
2022-08-20T13:05:43.356Z,99728.71
2022-08-20T13:08:11.959Z,99726.56
2022-08-20T13:10:44.104Z,99722.41
2022-08-20T13:13:12.899Z,99722.01
2022-08-20T13:15:40.597Z,99716.65
2022-08-20T13:18:08.350Z,99722.54
2022-08-20T13:20:36.370Z,99720.81
2022-08-20T13:23:04.661Z,99716.52
2022-08-20T13:25:32.823Z,99714.70
2022-08-20T13:28:03.656Z,99702.16
2022-08-20T13:30:32.275Z,99702.28
2022-08-20T13:33:00.342Z,99700.92
2022-08-20T13:35:28.306Z,99702.10
2022-08-20T13:37:56.059Z,99694.63
2022-08-20T13:40:24.076Z,99685.52
2022-08-20T13:42:51.727Z,99687.93
2022-08-20T13:45:19.422Z,99682.33
2022-08-20T13:47:51.407Z,99682.69
2022-08-20T13:50:20.208Z,99686.06
2022-08-20T13:52:48.386Z,99685.77
2022-08-20T13:55:17.455Z,99689.94
2022-08-20T13:57:47.182Z,99685.98
2022-08-20T14:00:17.947Z,99686.98
2022-08-20T14:02:45.670Z,99686.17
2022-08-20T14:05:16.094Z,99685.59
2022-08-20T14:07:47.773Z,99684.30
2022-08-20T14:10:20.422Z,99675.95
2022-08-20T14:12:48.338Z,99676.91
2022-08-20T14:15:16.680Z,99675.42
2022-08-20T14:17:51.688Z,99673.05
2022-08-20T14:20:20.820Z,99665.98
2022-08-20T14:22:48.525Z,99661.19
2022-08-20T14:25:17.883Z,99661.30
2022-08-20T14:27:45.662Z,99662.34
2022-08-20T14:30:14.827Z,99661.11
2022-08-20T14:32:42.648Z,99655.64
2022-08-20T14:35:10.993Z,99656.70
2022-08-20T14:37:40.325Z,99659.23
2022-08-20T14:40:10.018Z,99658.73
2022-08-20T14:42:38.390Z,99658.89
2022-08-20T14:45:07.444Z,99664.07
2022-08-20T14:47:36.557Z,99665.42
2022-08-20T14:50:06.593Z,99664.50
2022-08-20T14:52:36.559Z,99661.70
2022-08-20T14:55:05.064Z,99657.16
2022-08-20T14:57:33.118Z,99659.05
2022-08-20T15:00:01.548Z,99655.30
2022-08-20T15:02:30.995Z,99659.37
2022-08-20T15:04:58.696Z,99659.09
2022-08-20T15:07:29.022Z,99658.63
2022-08-20T15:09:57.385Z,99657.81
2022-08-20T15:12:25.099Z,99658.92
2022-08-20T15:14:52.801Z,99657.17
2022-08-20T15:17:25.376Z,99661.52
2022-08-20T15:19:53.775Z,99660.83
2022-08-20T15:22:22.925Z,99665.69
2022-08-20T15:24:51.470Z,99664.08
2022-08-20T15:27:24.492Z,99665.20
2022-08-20T15:29:52.875Z,99660.42
2022-08-20T15:32:20.947Z,99665.89
2022-08-20T15:34:49.012Z,99667.34
2022-08-20T15:37:21.645Z,99666.77
2022-08-20T15:39:50.131Z,99669.89
2022-08-20T15:42:18.756Z,99676.41
2022-08-20T15:44:47.445Z,99676.55
2022-08-20T15:47:20.931Z,99678.30
2022-08-20T15:49:50.321Z,99683.20
2022-08-20T15:52:18.122Z,99678.39
2022-08-20T15:54:46.600Z,99676.04
2022-08-20T15:57:14.278Z,99674.63
2022-08-20T15:59:47.472Z,99679.73
2022-08-20T16:02:30.101Z,99683.49
2022-08-20T16:04:57.759Z,99679.98
2022-08-20T16:07:34.177Z,99679.57
2022-08-20T16:10:17.888Z,99675.52
2022-08-20T16:12:48.538Z,99674.48
2022-08-20T16:15:20.343Z,99676.96
2022-08-20T16:17:53.008Z,99673.84
2022-08-20T16:20:35.276Z,99676.05
2022-08-20T16:23:04.432Z,99676.87
2022-08-20T16:25:38.932Z,99677.75
2022-08-20T16:28:22.769Z,99676.77
2022-08-20T16:30:56.903Z,99683.05
2022-08-20T16:33:26.038Z,99687.40
2022-08-20T16:36:06.843Z,99688.75
2022-08-20T16:39:00.757Z,99686.02
2022-08-20T16:41:45.001Z,99685.36
2022-08-20T16:44:12.633Z,99680.95
2022-08-20T16:46:46.427Z,99680.51
2022-08-20T16:49:15.283Z,99677.39
2022-08-20T16:51:49.446Z,99675.52
2022-08-20T16:54:29.415Z,99679.64
2022-08-20T16:57:01.350Z,99680.83
2022-08-20T16:59:29.365Z,99680.02
2022-08-20T17:02:01.788Z,99682.10
2022-08-20T17:04:43.419Z,99679.86
2022-08-20T17:07:29.337Z,99682.55
2022-08-20T17:10:09.256Z,99686.60
2022-08-20T17:12:38.182Z,99685.30
2022-08-20T17:15:06.584Z,99679.21
2022-08-20T17:17:36.152Z,99683.13
2022-08-20T17:20:16.245Z,99683.85
2022-08-20T17:22:50.486Z,99686.06
2022-08-20T17:25:32.719Z,99685.27
2022-08-20T17:28:00.396Z,99693.30
2022-08-20T17:30:35.418Z,99692.52
2022-08-20T17:33:05.039Z,99692.00
2022-08-20T17:35:41.607Z,99693.02
2022-08-20T17:38:24.615Z,99694.05
2022-08-20T17:40:58.110Z,99693.95
2022-08-20T17:43:30.808Z,99704.00
2022-08-20T17:46:00.091Z,99709.35
2022-08-20T17:48:32.117Z,99713.36
2022-08-20T17:51:04.801Z,99713.38
2022-08-20T17:53:35.366Z,99716.84
2022-08-20T17:56:08.479Z,99716.23
2022-08-20T17:58:40.749Z,99709.40
2022-08-20T18:01:23.585Z,99703.45
2022-08-20T18:03:52.462Z,99700.58
2022-08-20T18:06:30.541Z,99703.23
2022-08-20T18:09:14.633Z,99704.55
2022-08-20T18:11:45.347Z,99707.04
2022-08-20T18:14:18.115Z,99713.59
2022-08-20T18:16:45.752Z,99716.22
2022-08-20T18:19:15.395Z,99719.80
2022-08-20T18:21:49.369Z,99719.88
2022-08-20T18:24:43.812Z,99725.23
2022-08-20T18:27:14.531Z,99728.73
2022-08-20T18:29:44.184Z,99734.66
2022-08-20T18:32:40.846Z,99736.74
2022-08-20T18:35:10.653Z,99733.20
2022-08-20T18:37:38.874Z,99741.95
2022-08-20T18:40:10.261Z,99748.85
2022-08-20T18:42:38.178Z,99752.20
2022-08-20T18:45:07.188Z,99754.99
2022-08-20T18:47:35.082Z,99728.30
2022-08-20T18:50:16.839Z,99719.21
2022-08-20T18:53:01.250Z,99724.17
2022-08-20T18:55:48.128Z,99730.91
2022-08-20T18:58:29.241Z,99724.17
2022-08-20T19:00:57.974Z,99740.42
2022-08-20T19:03:31.341Z,99742.93
2022-08-20T19:06:04.136Z,99733.48
2022-08-20T19:08:47.791Z,99731.48
2022-08-20T19:11:15.500Z,99729.58
2022-08-20T19:13:50.905Z,99734.91
2022-08-20T19:16:21.075Z,99774.02
2022-08-20T19:18:52.916Z,99786.19
2022-08-20T19:21:25.437Z,99808.39
2022-08-20T19:23:55.209Z,99846.34
2022-08-20T19:26:25.647Z,99853.16
2022-08-20T19:29:02.731Z,99864.61
2022-08-20T19:31:32.542Z,99867.23
2022-08-20T19:34:15.013Z,99857.79
2022-08-20T19:36:54.404Z,99844.95
2022-08-20T19:39:24.789Z,99816.55
2022-08-20T19:41:58.845Z,99791.68
2022-08-20T19:44:42.548Z,99801.62
2022-08-20T19:47:19.987Z,99790.63
2022-08-20T19:50:03.965Z,99772.02
2022-08-20T19:52:47.625Z,99770.45
2022-08-20T19:55:21.425Z,99761.20
2022-08-20T19:57:50.733Z,99756.23
2022-08-20T20:00:19.008Z,99758.20
2022-08-20T20:02:46.712Z,99758.33
2022-08-20T20:05:15.918Z,99762.85
2022-08-20T20:07:51.618Z,99761.27
2022-08-20T20:10:22.123Z,99768.52
2022-08-20T20:12:49.852Z,99773.09
2022-08-20T20:15:18.382Z,99769.60
2022-08-20T20:17:46.380Z,99771.36
2022-08-20T20:20:25.961Z,99768.79
2022-08-20T20:23:13.149Z,99757.89
2022-08-20T20:25:42.557Z,99747.08
2022-08-20T20:28:10.509Z,99746.80
2022-08-20T20:30:39.091Z,99755.34
2022-08-20T20:33:13.112Z,99762.50
2022-08-20T20:35:41.176Z,99748.95
2022-08-20T20:38:29.316Z,99747.73
2022-08-20T20:40:59.138Z,99743.64
2022-08-20T20:43:28.590Z,99738.46
2022-08-20T20:45:58.909Z,99737.96
2022-08-20T20:48:28.367Z,99739.61
2022-08-20T20:51:11.853Z,99739.98
2022-08-20T20:53:53.138Z,99739.34
2022-08-20T20:56:27.224Z,99744.02
2022-08-20T20:58:56.242Z,99749.77
2022-08-20T21:01:27.230Z,99757.33
2022-08-20T21:04:12.220Z,99763.84
2022-08-20T21:06:39.949Z,99765.84
2022-08-20T21:09:08.251Z,99785.13
2022-08-20T21:11:36.071Z,99793.23
2022-08-20T21:14:04.389Z,99790.08
2022-08-20T21:16:32.011Z,99775.52
2022-08-20T21:18:59.899Z,99771.23
2022-08-20T21:21:27.573Z,99768.11
2022-08-20T21:23:55.201Z,99757.98
2022-08-20T21:26:23.732Z,99737.20
2022-08-20T21:28:51.487Z,99747.09
2022-08-20T21:31:19.381Z,99749.76
2022-08-20T21:33:47.029Z,99740.40
2022-08-20T21:36:15.260Z,99763.66
2022-08-20T21:38:42.867Z,99763.65
2022-08-20T21:41:10.630Z,99760.39
2022-08-20T21:43:38.736Z,99766.70
2022-08-20T21:46:09.054Z,99768.23
2022-08-20T21:48:37.263Z,99759.88
2022-08-20T21:51:05.115Z,99757.47
2022-08-20T21:53:32.927Z,99753.02
2022-08-20T21:56:00.801Z,99749.23
2022-08-20T21:58:28.531Z,99757.40
2022-08-20T22:00:58.381Z,99763.27
2022-08-20T22:03:27.890Z,99764.97
2022-08-20T22:05:56.976Z,99764.63
2022-08-20T22:08:28.349Z,99762.90
2022-08-20T22:10:58.242Z,99761.27
2022-08-20T22:13:31.251Z,99764.27
2022-08-20T22:16:04.255Z,99774.99
2022-08-20T22:18:32.288Z,99776.00
2022-08-20T22:21:00.529Z,99781.54
2022-08-20T22:23:28.547Z,99779.30
2022-08-20T22:25:56.749Z,99780.63
2022-08-20T22:28:24.371Z,99780.07
2022-08-20T22:30:52.131Z,99782.77
2022-08-20T22:33:21.869Z,99777.13
2022-08-20T22:35:51.515Z,99776.13
2022-08-20T22:38:19.733Z,99775.98
2022-08-20T22:40:47.777Z,99773.95
2022-08-20T22:43:15.686Z,99770.70
2022-08-20T22:45:44.696Z,99768.44
2022-08-20T22:48:14.689Z,99769.77
2022-08-20T22:50:42.669Z,99772.33
2022-08-20T22:53:10.750Z,99771.46
2022-08-20T22:55:38.519Z,99774.13
2022-08-20T22:58:07.093Z,99777.31
2022-08-20T23:00:35.543Z,99772.85
2022-08-20T23:03:04.082Z,99779.31
2022-08-20T23:05:33.351Z,99781.45
2022-08-20T23:08:01.222Z,99785.99
2022-08-20T23:10:30.570Z,99786.80
2022-08-20T23:12:58.926Z,99790.77
2022-08-20T23:15:27.689Z,99793.08
2022-08-20T23:17:58.352Z,99785.98
2022-08-20T23:20:26.018Z,99788.55
2022-08-20T23:22:54.846Z,99795.14
2022-08-20T23:25:22.921Z,99791.16
2022-08-20T23:27:53.705Z,99789.81
2022-08-20T23:30:21.681Z,99785.31
2022-08-20T23:32:49.574Z,99779.91
2022-08-20T23:35:17.894Z,99778.15
2022-08-20T23:37:48.229Z,99777.61
2022-08-20T23:40:17.050Z,99775.79
2022-08-20T23:42:44.984Z,99775.14
2022-08-20T23:45:13.702Z,99768.64
2022-08-20T23:47:41.886Z,99762.38
2022-08-20T23:50:13.617Z,99756.69
2022-08-20T23:52:41.386Z,99757.59
2022-08-20T23:55:09.558Z,99752.41
2022-08-20T23:57:37.653Z,99753.38
